Terminal Aerodrome Forecast
Issued by NWS Northern Indiana

Home | Current Version | Previous Version | Text Only | Print | Product List | Glossary On
Versions: 1 2 3 4 5 6 7 8 9 10 11 12 13
000
FTUS43 KIWX 171127
TAFFWA
TAF
KFWA 171127Z 1712/1812 07005KT P6SM OVC200
     FM171600 19006KT P6SM OVC025
     FM180000 21007KT P6SM OVC030
     FM180300 22007KT 5SM BR OVC012
     FM180600 22008KT 3SM -DZ BR SCT005 OVC008
      TEMPO 1808/1812 1 1/2SM -DZ BR OVC005=

USA.gov is the U.S. government's official web portal to all federal, state and local government web resources and services.